createdAt,value
2018-04-28T09:23:49.711Z,5.22
2018-04-28T09:24:43.781Z,6.78
2018-04-28T09:25:37.138Z,4.93
2018-04-28T09:26:30.529Z,6.55
2018-04-28T09:27:28.993Z,5.47
2018-04-28T09:28:22.270Z,5.68
2018-04-28T09:29:15.480Z,7.28
2018-04-28T09:30:08.783Z,7.70
2018-04-28T09:31:03.337Z,5.97
2018-04-28T09:31:56.668Z,6.90
2018-04-28T09:32:50.773Z,4.35
2018-04-28T09:33:43.985Z,6.00
2018-04-28T09:34:37.396Z,7.90
2018-04-28T09:35:31.739Z,4.80
2018-04-28T09:36:24.959Z,14.27
2018-04-28T09:37:18.348Z,5.68
2018-04-28T09:38:11.648Z,15.73
2018-04-28T09:39:04.869Z,11.12
2018-04-28T09:39:58.682Z,6.05
2018-04-28T09:40:52.128Z,8.70
2018-04-28T09:41:45.369Z,4.60
2018-04-28T09:42:38.622Z,7.32
2018-04-28T09:43:31.972Z,5.53
2018-04-28T09:44:25.934Z,7.37
2018-04-28T09:45:19.144Z,6.47
2018-04-28T09:46:12.396Z,8.18
2018-04-28T09:47:05.615Z,7.43
2018-04-28T09:47:58.885Z,5.57
2018-04-28T09:48:52.880Z,4.62
2018-04-28T09:49:47.192Z,8.10
2018-04-28T09:50:40.390Z,4.47
2018-04-28T09:51:34.340Z,4.12
2018-04-28T09:52:28.299Z,5.12
2018-04-28T09:53:21.517Z,5.68
2018-04-28T09:54:14.716Z,6.90
2018-04-28T09:55:07.907Z,3.83
2018-04-28T09:56:01.184Z,5.68
2018-04-28T09:56:54.379Z,4.57
2018-04-28T09:58:00.263Z,4.40
2018-04-28T09:58:53.509Z,4.80
2018-04-28T09:59:46.746Z,5.75
2018-04-28T10:00:56.377Z,4.55
2018-04-28T20:31:10.486Z,10.60
2018-04-28T20:32:05.905Z,9.98
2018-04-28T20:32:59.272Z,9.57
2018-04-28T20:33:52.784Z,10.68
2018-04-28T20:34:46.028Z,11.43
2018-04-28T20:35:39.242Z,10.57
2018-04-28T20:36:32.609Z,10.10
2018-04-28T20:37:25.848Z,9.02
2018-04-28T20:38:19.108Z,11.68
2018-04-28T20:39:12.481Z,6.93
2018-04-28T20:40:06.296Z,11.38
2018-04-28T20:40:59.481Z,11.63
2018-04-28T20:41:52.769Z,8.13
2018-04-28T20:42:46.013Z,8.57
2018-04-28T20:43:39.216Z,8.35
2018-04-28T20:44:32.569Z,7.80
2018-04-28T20:45:25.813Z,9.02
2018-04-28T20:46:19.028Z,8.32
2018-04-28T20:47:12.243Z,10.07
2018-04-28T20:48:06.280Z,8.70
2018-04-28T20:48:59.506Z,10.50
2018-04-28T20:49:52.731Z,13.93
2018-04-28T20:50:46.084Z,10.85
2018-04-28T20:51:39.588Z,14.25
2018-04-28T20:52:32.849Z,13.15
2018-04-28T20:53:26.178Z,14.38
2018-04-28T20:54:19.486Z,12.18
2018-04-28T20:55:12.782Z,11.95
2018-04-28T20:56:06.815Z,13.02
2018-04-28T20:57:00.931Z,14.60
2018-04-28T20:57:54.180Z,13.30
2018-04-28T20:58:48.362Z,17.92
2018-04-28T20:59:41.909Z,13.23
2018-04-28T21:00:35.941Z,12.27
2018-04-28T21:01:30.199Z,12.90
2018-04-28T21:02:23.498Z,12.48
2018-04-28T21:03:17.491Z,13.30
2018-04-28T21:04:10.948Z,12.60
2018-04-28T21:05:04.299Z,13.00
2018-04-28T21:05:59.770Z,15.32
2018-04-28T21:06:53.921Z,14.48
2018-04-28T21:07:48.113Z,13.57
2018-04-28T21:08:42.204Z,16.73
2018-04-28T21:09:35.620Z,15.07
2018-04-28T21:10:29.615Z,12.70
2018-04-28T21:11:22.897Z,14.13
2018-04-28T21:12:16.286Z,12.98
2018-04-28T21:13:09.674Z,16.23
2018-04-28T21:14:03.944Z,15.45
2018-04-28T21:14:57.325Z,13.98
2018-04-28T21:15:50.613Z,14.43
2018-04-28T21:16:44.668Z,14.00
2018-04-28T21:17:37.928Z,17.48
2018-04-28T21:18:31.904Z,14.05
2018-04-28T21:19:26.092Z,13.80
2018-04-28T21:20:20.248Z,13.85
2018-04-28T21:21:13.530Z,13.73
2018-04-28T21:22:06.789Z,14.85
2018-04-28T21:23:00.045Z,14.80
2018-04-28T21:23:53.374Z,13.45
2018-04-28T21:24:46.744Z,15.82
2018-04-28T21:25:40.080Z,13.77
2018-04-28T21:26:33.407Z,14.10
2018-04-28T21:27:27.712Z,15.65
2018-04-28T21:28:21.064Z,16.37
2018-04-28T21:29:14.313Z,15.40
2018-04-28T21:30:07.628Z,17.25
2018-04-28T21:31:00.949Z,14.23
2018-04-28T21:31:55.112Z,16.92
2018-04-28T21:32:49.169Z,14.02
2018-04-28T21:33:42.476Z,14.87
2018-04-28T21:34:36.027Z,14.95
2018-04-28T21:35:29.441Z,15.82
2018-04-28T21:36:22.819Z,14.20
2018-04-28T21:37:16.117Z,13.65
2018-04-28T21:38:09.468Z,15.60
2018-04-28T21:39:03.968Z,15.35
2018-04-28T21:39:57.938Z,15.77
2018-04-28T21:40:51.314Z,15.27
2018-04-28T21:41:44.712Z,16.90
2018-04-28T21:42:38.138Z,13.18
2018-04-28T21:43:31.419Z,11.52
2018-04-28T21:44:24.777Z,13.43
2018-04-28T21:45:19.783Z,10.98
2018-04-28T21:46:13.018Z,11.00
2018-04-28T21:47:07.089Z,11.23
2018-04-28T21:48:02.262Z,10.23
2018-04-28T21:48:55.438Z,8.63
2018-04-28T21:49:49.359Z,8.93
2018-04-28T21:50:42.525Z,9.40
2018-04-28T21:51:36.545Z,7.53
2018-04-28T21:52:29.762Z,8.18
2018-04-28T21:53:23.030Z,8.75
2018-04-28T21:54:16.274Z,8.18
2018-04-28T21:55:09.511Z,10.05
2018-04-28T21:56:02.706Z,6.62
2018-04-28T21:56:56.707Z,6.43
2018-04-28T21:57:50.019Z,7.18
2018-04-28T21:58:43.238Z,6.22
2018-04-28T21:59:36.447Z,7.37
2018-04-28T22:00:31.728Z,6.32
2018-04-28T22:01:24.954Z,5.40
2018-04-28T22:02:18.290Z,7.37
2018-04-28T22:03:11.455Z,5.60
2018-04-28T22:04:04.842Z,6.22
2018-04-28T22:04:58.815Z,7.65
2018-04-28T22:05:52.024Z,6.32
2018-04-28T22:06:45.296Z,5.45
2018-04-28T22:07:38.542Z,5.05
2018-04-28T22:08:32.528Z,5.18
2018-04-28T22:09:25.834Z,5.20
2018-04-28T22:10:18.999Z,5.07
2018-04-28T22:11:13.004Z,10.25
2018-04-28T22:12:06.175Z,7.53
2018-04-28T22:12:59.575Z,6.18
2018-04-28T22:13:53.508Z,10.25
2018-04-28T22:14:46.741Z,12.90
2018-04-28T22:15:40.160Z,8.88
2018-04-28T22:16:33.387Z,8.95
2018-04-28T22:17:26.709Z,8.68
2018-04-28T22:18:20.162Z,7.10
2018-04-28T22:19:13.342Z,9.77
2018-04-28T22:20:06.594Z,10.20
2018-04-28T22:20:59.839Z,9.73
2018-04-28T22:21:53.078Z,7.95
2018-04-28T22:22:47.074Z,8.00
2018-04-28T22:23:40.461Z,7.50
2018-04-28T22:24:33.656Z,7.47
2018-04-28T22:25:26.829Z,7.20
2018-04-28T22:26:20.155Z,6.43
2018-04-28T22:27:13.344Z,5.35
2018-04-28T22:28:06.643Z,5.53
2018-04-28T22:28:59.837Z,6.45
2018-04-28T22:29:53.077Z,6.40
2018-04-28T22:30:46.289Z,6.18
2018-04-28T22:31:39.573Z,5.93
2018-04-28T22:32:32.769Z,7.05
2018-04-28T22:33:25.989Z,7.15
2018-04-28T22:34:19.215Z,9.27
2018-04-28T22:35:12.528Z,8.13
2018-04-28T22:36:05.807Z,7.93
2018-04-28T22:36:59.017Z,6.80
2018-04-28T22:37:52.197Z,7.75
2018-04-28T22:38:45.353Z,8.38
2018-04-28T22:39:39.348Z,6.95
2018-04-28T22:40:32.559Z,7.28
2018-04-28T22:41:25.763Z,6.18
2018-04-28T22:42:20.648Z,9.27
2018-04-28T22:43:14.583Z,5.07
2018-04-28T22:44:08.667Z,6.50
2018-04-28T22:45:01.932Z,5.32
2018-04-28T22:45:55.917Z,8.00
2018-04-28T22:46:49.116Z,5.97
2018-04-28T22:47:42.298Z,4.80
2018-04-28T22:48:35.494Z,5.97
2018-04-28T22:49:28.879Z,6.03
2018-04-28T22:50:22.868Z,5.28
2018-04-28T22:51:16.064Z,7.22
2018-04-28T22:52:10.046Z,5.95
